Thunder radar more information blitzortung!


Radar de pluja more information rain snow radar


Visita la nostra xarxa de llocs de meteo:

Template documentation
and downloads

And another site



No particular awareness of the weather is required.    There are no Weather-warnings

Pagina Historial Weather Underground text

Diari Resum Juliol 10, 2017 Unitats:  Imperial    Mètric   Tant
« Previous Dia
SegĂźent Dia »
Diari Setmana Mensual Anual Personalitzada
  Maxima: Minima: Media:
Temperatura: 91.8 °F 67.6 °F 80.1 °F
Punt de rosada: 66 °F 54.3 °F 60.3 °F
Humitat: 83 % 33 % 53 %
Wind Speed: 16.1 mph 0 mph 4.4 mph
RĂ fegues de vent: 16.1 mph - -
Vent:- - SE
Pression baro: 30 in 29.8 in -
Precipitacions: 0 in    
Historical Graphs
 
 
Dades de taula per Juliol 10, 2017
Temps Temperatura Punt de rosada Pression baro Vent Wind Speed RĂ fegues de vent Humitat Rainfall Rate (Hourly)
00:00 68.7 °F 63.3 °F 29.9 in Calm   2 mph 83 % 0 in
00:04 72.9 °F 64.8 °F 29.9 in ENE 2.3 mph 2.3 mph 76 % 0 in
00:10 68.7 °F 63.3 °F 29.9 in NE 1 mph 2 mph 83 % 0 in
00:20 68.5 °F 63.1 °F 29.9 in NE 1 mph 2 mph 83 % 0 in
00:30 68.4 °F 63 °F 29.9 in NE 1 mph 3 mph 83 % 0 in
00:40 68.4 °F 63 °F 29.9 in NE 2 mph 3 mph 83 % 0 in
00:50 68.2 °F 62.8 °F 29.9 in Calm   1 mph 83 % 0 in
01:00 68 °F 62.6 °F 29.9 in Calm   2 mph 83 % 0 in
01:10 68 °F 62.6 °F 29.9 in ENE 2 mph 2 mph 83 % 0 in
01:20 68 °F 62.2 °F 29.9 in NE 2 mph 3 mph 82 % 0 in
01:30 68 °F 62.2 °F 29.9 in North 1 mph 3 mph 82 % 0 in
01:40 67.8 °F 62.4 °F 29.9 in Calm   2 mph 83 % 0 in
01:50 67.6 °F 62.2 °F 29.9 in NNE 1 mph 2 mph 83 % 0 in
02:00 67.6 °F 62.2 °F 29.9 in ENE 1 mph 2 mph 83 % 0 in
02:10 67.8 °F 62.4 °F 29.9 in NE 1 mph 3 mph 83 % 0 in
02:20 68 °F 62.2 °F 29.9 in NE 1 mph 2 mph 82 % 0 in
02:30 68 °F 62.2 °F 29.9 in NE 1 mph 2 mph 82 % 0 in
02:40 68.4 °F 62.6 °F 29.9 in NE 1 mph 2 mph 82 % 0 in
02:50 69.1 °F 63.3 °F 29.9 in NE 1 mph 3 mph 82 % 0 in
03:00 69.8 °F 63.3 °F 29.9 in NE 1 mph 1 mph 80 % 0 in
03:10 70 °F 63.1 °F 29.9 in NE 2 mph 3 mph 79 % 0 in
03:20 71.6 °F 64.4 °F 29.9 in NNE 1 mph 3 mph 78 % 0 in
03:30 71.6 °F 63.7 °F 29.9 in NE 3 mph 4 mph 76 % 0 in
03:40 71.8 °F 63.9 °F 29.9 in NE 3 mph 5 mph 76 % 0 in
03:50 73.9 °F 64.8 °F 29.9 in NNE 2 mph 5 mph 73 % 0 in
04:00 73.2 °F 63.7 °F 29.9 in NNE 5 mph 5 mph 72 % 0 in
04:10 73.2 °F 64 °F 29.9 in NNE 1 mph 3 mph 73 % 0 in
04:20 73.4 °F 63.9 °F 29.9 in NNE 3 mph 4 mph 72 % 0 in
04:30 73.6 °F 64 °F 29.9 in NNE 1 mph 2 mph 72 % 0 in
04:40 74.3 °F 63.9 °F 29.9 in NNE 1 mph 2 mph 70 % 0 in
04:50 74.7 °F 64.2 °F 29.9 in Calm   2 mph 70 % 0 in
05:00 74.8 °F 64.4 °F 29.9 in West 1 mph 1 mph 70 % 0 in
10:03 75.2 °F 64.2 °F 29.9 in ESE 2.3 mph   69 % 0 in
10:08 75.7 °F 64.4 °F 29.9 in SW 1.6 mph 1.6 mph 68 % 0 in
10:13 76.3 °F 64.9 °F 29.9 in SW 2.3 mph 2.3 mph 68 % 0 in
10:18 76.6 °F 65.3 °F 29.9 in WSW 2.3 mph 2.3 mph 68 % 0 in
10:23 75.9 °F 64.6 °F 29.9 in WSW 2.4 mph 2.4 mph 68 % 0 in
10:28 76.5 °F 65.1 °F 29.9 in SE 3.8 mph 3.8 mph 68 % 0 in
10:33 76.8 °F 65.5 °F 29.9 in SE 2.6 mph 2.6 mph 68 % 0 in
10:38 77.4 °F 65.1 °F 29.9 in SE 4.6 mph 4.6 mph 66 % 0 in
10:43 77.4 °F 64.8 °F 29.9 in ESE 3.5 mph 3.5 mph 65 % 0 in
10:48 77.7 °F 64.6 °F 29.9 in NNE 5.8 mph 5.8 mph 64 % 0 in
10:53 78.4 °F 65.7 °F 29.9 in ENE 4.9 mph 4.9 mph 65 % 0 in
10:58 78.8 °F 65.7 °F 29.9 in ENE 3.8 mph 3.8 mph 64 % 0 in
11:03 78.6 °F 64.9 °F 29.9 in WNW 5.8 mph 5.8 mph 63 % 0 in
11:08 79 °F 64.8 °F 29.9 in ENE 4.6 mph 4.6 mph 62 % 0 in
11:13 79.7 °F 65.5 °F 29.9 in West 2.3 mph 2.4 mph 62 % 0 in
11:18 80.4 °F 65.7 °F 29.9 in NE 2.9 mph 2.9 mph 61 % 0 in
11:23 80.4 °F 65.3 °F 29.9 in South 3.5 mph 3.6 mph 60 % 0 in
11:28 80.8 °F 65.1 °F 29.9 in ESE 2.4 mph 2.4 mph 59 % 0 in
11:33 81.5 °F 65.8 °F 29.9 in SSW 3.5 mph 3.5 mph 59 % 0 in
11:38 81.9 °F 66 °F 29.9 in ENE 2.4 mph 2.4 mph 59 % 0 in
11:43 80.6 °F 64.9 °F 29.9 in ENE 5.8 mph 5.8 mph 59 % 0 in
11:48 80.8 °F 65.1 °F 29.9 in ENE 5.8 mph 5.8 mph 59 % 0 in
11:53 81.5 °F 65.3 °F 29.9 in SE 8.1 mph 8.1 mph 58 % 0 in
11:58 82.2 °F 65.5 °F 29.9 in SE 6.9 mph 6.9 mph 57 % 0 in
12:03 82.6 °F 65.3 °F 29.9 in East 3.5 mph 3.5 mph 56 % 0 in
12:08 82.4 °F 64.6 °F 29.9 in NE 5.8 mph 5.8 mph 55 % 0 in
12:13 82.2 °F 64.4 °F 29.9 in East 3.5 mph 3.5 mph 55 % 0 in
12:18 82 °F 64.2 °F 29.9 in ENE 4.7 mph 4.7 mph 55 % 0 in
12:23 82.8 °F 64.4 °F 29.9 in ESE 3.5 mph 3.5 mph 54 % 0 in
12:28 82.8 °F 64.4 °F 29.9 in ESE 9.2 mph 9.2 mph 54 % 0 in
12:33 82.6 °F 64.2 °F 29.9 in NE 6.9 mph 6.9 mph 54 % 0 in
12:38 83.5 °F 65.1 °F 29.9 in ESE 10.4 mph 10.4 mph 54 % 0 in
12:43 83.5 °F 65.1 °F 29.9 in ESE 8.1 mph 8.1 mph 54 % 0 in
12:48 83.7 °F 64.8 °F 29.9 in East 11.5 mph 11.5 mph 53 % 0 in
12:53 83.3 °F 64.4 °F 29.9 in East 16.1 mph 16.1 mph 53 % 0 in
12:58 83.7 °F 64.8 °F 29.9 in ESE 9.2 mph 9.2 mph 53 % 0 in
13:03 84 °F 64.6 °F 29.9 in SSE 12.7 mph 12.7 mph 52 % 0 in
13:08 84.2 °F 64 °F 29.9 in ESE 6.9 mph 6.9 mph 51 % 0 in
13:13 83.8 °F 64.2 °F 29.9 in ESE 10.2 mph 10.2 mph 52 % 0 in
13:18 83.7 °F 64.2 °F 29.9 in ESE 8.5 mph 8.5 mph 52 % 0 in
13:23 83.7 °F 64.2 °F 29.9 in East 10.4 mph 10.4 mph 52 % 0 in
13:28 83.8 °F 64.2 °F 29.9 in East 12.7 mph 12.7 mph 52 % 0 in
13:33 84 °F 64.6 °F 29.9 in East 10.4 mph 10.4 mph 52 % 0 in
13:38 83.8 °F 63.9 °F 29.9 in South 12.7 mph 12.7 mph 51 % 0 in
13:43 85.8 °F 64.6 °F 29.9 in WNW 4.6 mph 4.6 mph 49 % 0 in
13:48 88 °F 64 °F 29.9 in SW 3.5 mph 3.5 mph 45 % 0 in
13:53 87.4 °F 64.8 °F 29.8 in East 5.8 mph 5.8 mph 47 % 0 in
13:58 86.4 °F 63.9 °F 29.8 in ESE 10.4 mph 10.4 mph 47 % 0 in
14:03 85.6 °F 63.7 °F 29.8 in ESE 10.5 mph 10.5 mph 48 % 0 in
14:08 85.5 °F 63.5 °F 29.9 in SSE 11.5 mph 11.5 mph 48 % 0 in
14:13 86.5 °F 63.9 °F 29.9 in SSE 10.4 mph 10.4 mph 47 % 0 in
14:18 87.3 °F 65.1 °F 29.9 in East 7.6 mph 7.6 mph 48 % 0 in
14:23 86.5 °F 63.9 °F 29.8 in ESE 10.4 mph 10.4 mph 47 % 0 in
14:28 88.2 °F 64 °F 29.8 in SW 3.5 mph 3.5 mph 45 % 0 in
14:33 89.1 °F 64.2 °F 29.8 in South 6.9 mph 6.9 mph 44 % 0 in
14:38 86.9 °F 64.2 °F 29.8 in East 6.9 mph 6.9 mph 47 % 0 in
14:43 87.8 °F 63.1 °F 29.8 in SW 9.2 mph 9.2 mph 44 % 0 in
14:48 89.4 °F 63.3 °F 29.8 in SW 5.8 mph 5.8 mph 42 % 0 in
14:53 90.5 °F 63.7 °F 29.8 in SW 5.6 mph 5.6 mph 41 % 0 in
14:58 90.3 °F 63.3 °F 29.8 in SSW 5.8 mph 5.8 mph 41 % 0 in
15:03 90.5 °F 63 °F 29.8 in WSW 6.9 mph 6.9 mph 40 % 0 in
15:08 90.5 °F 63 °F 29.8 in WNW 5.8 mph 5.8 mph 40 % 0 in
15:13 90.5 °F 62.2 °F 29.8 in SW 9.2 mph 9.2 mph 39 % 0 in
15:18 89.8 °F 61.5 °F 29.8 in SSW 7.1 mph 7.1 mph 39 % 0 in
15:23 90.7 °F 62.2 °F 29.8 in SW 7.4 mph 7.4 mph 39 % 0 in
15:28 90.3 °F 61.3 °F 29.8 in SW 5.8 mph 6.4 mph 38 % 0 in
15:33 90.3 °F 61.3 °F 29.8 in SSW 6.9 mph 6.9 mph 38 % 0 in
15:38 89.8 °F 60.8 °F 29.8 in SSE 8.1 mph 8.1 mph 38 % 0 in
15:43 90.3 °F 60.4 °F 29.8 in South 4.6 mph 4.6 mph 37 % 0 in
15:48 91.8 °F 61.9 °F 29.8 in SSW 8.1 mph 8.1 mph 37 % 0 in
15:53 89.8 °F 60.1 °F 29.8 in West 2.3 mph 3.1 mph 37 % 0 in
15:58 89.6 °F 59.9 °F 29.8 in SSW 5.8 mph 5.8 mph 37 % 0 in
16:03 90.1 °F 60.4 °F 29.8 in SW 5.9 mph 5.9 mph 37 % 0 in
16:08 90.3 °F 59.7 °F 29.8 in SW 9.2 mph 9.2 mph 36 % 0 in
16:13 90.7 °F 60.1 °F 29.8 in West 5.9 mph 5.9 mph 36 % 0 in
16:18 89.8 °F 57.7 °F 29.8 in South 10.4 mph 10.4 mph 34 % 0 in
16:23 89.6 °F 58.3 °F 29.8 in SW 7.1 mph 7.1 mph 35 % 0 in
16:28 90 °F 58.6 °F 29.8 in WSW 4.6 mph 4.7 mph 35 % 0 in
16:33 90.3 °F 59 °F 29.8 in WSW 8.1 mph 8.1 mph 35 % 0 in
16:38 90 °F 58.6 °F 29.8 in ESE 5.8 mph 5.8 mph 35 % 0 in
16:43 90 °F 58.6 °F 29.8 in West 4.6 mph 4.6 mph 35 % 0 in
16:48 90.1 °F 58.8 °F 29.8 in SW 4.3 mph 4.3 mph 35 % 0 in
16:53 89.1 °F 57 °F 29.8 in South 9.2 mph 9.2 mph 34 % 0 in
16:58 88.9 °F 57.7 °F 29.8 in West 9 mph 9 mph 35 % 0 in
17:03 88.5 °F 57.4 °F 29.8 in WSW 8.1 mph 8.1 mph 35 % 0 in
17:08 88.5 °F 57.4 °F 29.8 in SW 4.6 mph 4.6 mph 35 % 0 in
17:13 88.2 °F 56.3 °F 29.8 in SW 5.9 mph 5.9 mph 34 % 0 in
17:18 88.3 °F 56.5 °F 29.8 in South 9.2 mph 9.2 mph 34 % 0 in
17:23 88.2 °F 57 °F 29.8 in West 8.5 mph 8.5 mph 35 % 0 in
17:28 88.9 °F 57.7 °F 29.8 in SSW 10.4 mph 10.4 mph 35 % 0 in
17:33 87.8 °F 55.9 °F 29.8 in WSW 12.7 mph 12.7 mph 34 % 0 in
17:38 88.2 °F 56.3 °F 29.8 in SSW 6.9 mph 6.9 mph 34 % 0 in
17:43 88.5 °F 56.7 °F 29.8 in SW 6.9 mph 6.9 mph 34 % 0 in
17:48 88.2 °F 56.3 °F 29.8 in SW 6.9 mph 6.9 mph 34 % 0 in
17:53 88.7 °F 56.7 °F 29.8 in SW 8.5 mph 8.5 mph 34 % 0 in
17:58 88.2 °F 56.3 °F 29.8 in SW 5.6 mph 5.6 mph 34 % 0 in
18:03 88 °F 56.1 °F 29.8 in SSW 5.8 mph 5.8 mph 34 % 0 in
18:08 86.9 °F 54.3 °F 29.8 in SW 10.4 mph 10.4 mph 33 % 0 in
18:13 86.7 °F 55 °F 29.8 in SW 5.9 mph 5.9 mph 34 % 0 in
18:18 86.2 °F 54.5 °F 29.8 in South 5.9 mph 5.9 mph 34 % 0 in
18:23 86.2 °F 54.5 °F 29.8 in SW 3.5 mph 3.5 mph 34 % 0 in
18:28 86 °F 55.2 °F 29.8 in SW 3.5 mph 3.5 mph 35 % 0 in
18:33 85.6 °F 54.9 °F 29.8 in South 2.3 mph 2.4 mph 35 % 0 in
18:38 85.8 °F 55.8 °F 29.8 in SSW 1.2 mph   36 % 0 in
18:43 85.5 °F 55.6 °F 29.8 in WSW 4.6 mph 4.6 mph 36 % 0 in
18:48 84.7 °F 54.9 °F 29.8 in WSW 3.5 mph 3.5 mph 36 % 0 in
18:53 84.7 °F 54.9 °F 29.8 in SW 4.6 mph 4.6 mph 36 % 0 in
18:58 84.4 °F 55.2 °F 29.8 in SW 6.9 mph 6.9 mph 37 % 0 in
19:03 84.2 °F 55 °F 29.8 in SW 4.6 mph 4.6 mph 37 % 0 in
19:08 84 °F 55.8 °F 29.8 in SSW 3.6 mph 3.6 mph 38 % 0 in
19:13 83.7 °F 56.1 °F 29.8 in West 5.8 mph 5.8 mph 39 % 0 in
19:18 83.1 °F 55.6 °F 29.8 in SSW 5.9 mph 5.9 mph 39 % 0 in
19:23 82.8 °F 55.9 °F 29.8 in West 5.8 mph 5.8 mph 40 % 0 in
19:28 82.4 °F 55.8 °F 29.8 in WSW 4.3 mph 4.3 mph 40 % 0 in
19:33 81.9 °F 55.9 °F 29.8 in WSW 8.1 mph 8.1 mph 41 % 0 in
19:38 81.3 °F 55.4 °F 29.8 in WSW 9.2 mph 9.2 mph 41 % 0 in
19:43 81.3 °F 55.4 °F 29.8 in South 8.1 mph 8.1 mph 41 % 0 in
19:48 81 °F 55 °F 29.8 in WSW 5.8 mph 5.8 mph 41 % 0 in
19:53 80.6 °F 54.7 °F 29.9 in WSW 8.1 mph 8.1 mph 41 % 0 in
19:58 80.2 °F 55 °F 29.9 in WSW 8.1 mph 8.1 mph 42 % 0 in
20:00 73.2 °F 61.5 °F 29.9 in NE 1 mph 2 mph 67 % 0 in
20:03 80.1 °F 54.9 °F 29.9 in WSW 5.8 mph 5.8 mph 42 % 0 in
20:08 79.9 °F 54.7 °F 29.9 in SW 5.8 mph 5.8 mph 42 % 0 in
20:10 73 °F 61.9 °F 29.9 in NE 2 mph 4 mph 68 % 0 in
20:13 79.7 °F 55.2 °F 29.9 in SW 4 mph 4 mph 43 % 0 in
20:18 79.7 °F 55.2 °F 29.9 in West 6.9 mph 6.9 mph 43 % 0 in
20:20 72.9 °F 61.7 °F 29.9 in NE 2 mph 2 mph 68 % 0 in
20:23 79.9 °F 55.4 °F 29.9 in SSW 4.6 mph 4.6 mph 43 % 0 in
20:28 80.1 °F 56.1 °F 29.9 in SW 3.6 mph 3.6 mph 44 % 0 in
20:30 72.7 °F 61.9 °F 29.9 in NNE 2 mph 3 mph 69 % 0 in
20:33 79.7 °F 55.9 °F 29.9 in SW 3.5 mph 3.5 mph 44 % 0 in
20:38 79.7 °F 55.9 °F 29.9 in WSW 4.6 mph 4.6 mph 44 % 0 in
20:40 72.5 °F 62.2 °F 29.9 in NNE 2 mph 3 mph 70 % 0 in
20:43 79.7 °F 55.9 °F 29.9 in SW 3.8 mph 3.8 mph 44 % 0 in
20:48 79.3 °F 55.6 °F 29.9 in South 5.8 mph 5.8 mph 44 % 0 in
20:50 72.3 °F 62.1 °F 29.9 in NNE 2 mph 3 mph 70 % 0 in
20:53 79.2 °F 55.4 °F 29.9 in West 4.6 mph 4.6 mph 44 % 0 in
20:58 79 °F 55.2 °F 29.9 in SW 3.1 mph 3.1 mph 44 % 0 in
21:00 72.3 °F 62.8 °F 29.9 in NE 2 mph 3 mph 72 % 0 in
21:03 79 °F 55.2 °F 29.9 in SW 1.2 mph 1.2 mph 44 % 0 in
21:08 78.8 °F 55.8 °F 29.9 in SW 1.2 mph 1.2 mph 45 % 0 in
21:10 72.1 °F 63 °F 29.9 in NE 2 mph 3 mph 73 % 0 in
21:13 78.6 °F 55.6 °F 29.9 in SSW 3.5 mph 3.5 mph 45 % 0 in
21:18 78.3 °F 55.2 °F 29.9 in SW 3.5 mph 3.5 mph 45 % 0 in
21:20 72 °F 62.8 °F 29.9 in NE 2 mph 4 mph 73 % 0 in
21:23 78.1 °F 55 °F 29.9 in SW 2.4 mph 2.4 mph 45 % 0 in
21:28 77.9 °F 54.9 °F 29.9 in West 2.3 mph 2.3 mph 45 % 0 in
21:30 72.1 °F 62.6 °F 29.9 in NE 2 mph 3 mph 72 % 0 in
21:33 77.7 °F 54.7 °F 29.9 in Calm     45 % 0 in
21:39 77.5 °F 54.5 °F 29.9 in Calm     45 % 0 in
21:40 72.1 °F 62.6 °F 29.9 in NE 2 mph 5 mph 72 % 0 in
21:44 77.4 °F 54.3 °F 29.9 in West 2.3 mph 2.3 mph 45 % 0 in
21:49 77.2 °F 54.9 °F 29.9 in West 2.2 mph   46 % 0 in
21:50 72 °F 62.8 °F 29.9 in NE 2 mph 4 mph 73 % 0 in
21:54 77 °F 54.7 °F 29.9 in SW 2.3 mph 2.3 mph 46 % 0 in
21:59 76.8 °F 55 °F 29.9 in SW 1.2 mph 1.2 mph 47 % 0 in
22:00 71.8 °F 63 °F 29.9 in ENE 1 mph 4 mph 74 % 0 in
22:04 76.5 °F 54.7 °F 29.9 in Calm     47 % 0 in
22:09 76.3 °F 55 °F 29.9 in Calm     48 % 0 in
22:10 71.6 °F 63 °F 29.9 in ENE 3 mph 3 mph 74 % 0 in
22:14 76.3 °F 55 °F 29.9 in Calm     48 % 0 in
22:19 76.1 °F 55 °F 29.9 in Calm     48 % 0 in
22:20 71.4 °F 63.1 °F 30 in NE 2 mph 3 mph 75 % 0 in
22:24 75.9 °F 55.4 °F 29.9 in Calm     49 % 0 in
22:29 75.9 °F 55.4 °F 29.9 in Calm     49 % 0 in
22:30 71.2 °F 63 °F 29.9 in NE 2 mph 3 mph 75 % 0 in
22:34 75.7 °F 55.2 °F 29.9 in Calm     49 % 0 in
22:39 75.7 °F 55.2 °F 29.9 in NNE 1.4 mph   49 % 0 in
22:40 71.1 °F 63.1 °F 29.9 in ENE 1 mph 2 mph 76 % 0 in
22:44 75.9 °F 55.4 °F 29.9 in NNE 3.5 mph 3.5 mph 49 % 0 in
22:45 75.9 °F 55.4 °F 29.9 in NNE 1.2 mph   49 % 0 in
22:50 75.7 °F 55.2 °F 29.9 in NNE 2.3 mph 2.3 mph 49 % 0 in
22:55 75.7 °F 55.2 °F 29.9 in NE 2.3 mph 2.3 mph 49 % 0 in
23:00 75.7 °F 55.8 °F 29.9 in NE 1.2 mph 1.2 mph 50 % 0 in
23:05 75.6 °F 55.6 °F 29.9 in Calm     50 % 0 in
23:10 75.4 °F 55.4 °F 29.9 in Calm     50 % 0 in
23:15 75.4 °F 55.9 °F 29.9 in North 2.3 mph 2.3 mph 51 % 0 in
23:20 75.4 °F 55.9 °F 29.9 in NNE 2.3 mph 2.3 mph 51 % 0 in
23:25 75.2 °F 56.8 °F 29.9 in NE 1.6 mph 1.6 mph 53 % 0 in
23:30 75.2 °F 56.8 °F 29.9 in NNE 2.3 mph 2.3 mph 53 % 0 in
23:35 75 °F 58.3 °F 29.9 in NNE 1.2 mph   56 % 0 in
23:40 74.8 °F 58.6 °F 29.9 in NE 2.3 mph 2.3 mph 57 % 0 in
23:45 74.8 °F 59.2 °F 29.9 in NE 2.3 mph 2.3 mph 58 % 0 in
23:50 74.7 °F 59.4 °F 29.9 in Calm     59 % 0 in
23:55 74.5 °F 59.7 °F 29.9 in NE 2.3 mph 2.3 mph 60 % 0 in
Meteo Sesrovires
Elogis d' Weather Underground - 3.75 mb

Guio original per  Jim McMurry - jmcmurry@mwt.net Adaptat per a la plantilla per  Wim van der Kuil - Leuven-Template.eu

Trobareu la nostra informacio del temps tambe a:

Weather Underground

AWEKAS